Time;durP1;ratioP1;P1;durP2;ratioP2;P2;SDS_P1;SDS_P2;PMS_P1;PMS_P2;Temp;Humidity;BMP_temperature;BMP_pressure;BME280_temperature;BME280_humidity;BME280_pressure;Samples;Min_cycle;Max_cycle;Signal;HPM_P1;HPM_P2
2023/01/21 00:02:21;;;;;;;6.95;3.45;;;0.00;91.70;;;;;;6279130;22;20017;-74
2023/01/21 00:04:46;;;;;;;7.05;3.17;;;0.00;91.80;;;;;;6307069;22;20090;-73
2023/01/21 00:07:12;;;;;;;6.13;2.88;;;0.00;91.80;;;;;;6279127;22;20049;-74
2023/01/21 00:09:37;;;;;;;6.45;3.42;;;0.00;91.80;;;;;;6306938;22;20038;-73
2023/01/21 00:12:03;;;;;;;6.50;2.97;;;0.00;91.70;;;;;;6306324;22;20009;-74
2023/01/21 00:14:30;;;;;;;6.32;3.40;;;0.00;91.70;;;;;;6306407;22;20308;-73
2023/01/21 00:16:57;;;;;;;6.03;2.63;;;0.00;91.80;;;;;;6279279;22;20018;-74
2023/01/21 00:19:23;;;;;;;5.47;2.58;;;0.00;91.80;;;;;;6306593;22;20007;-75
2023/01/21 00:21:49;;;;;;;6.78;3.25;;;0.00;91.80;;;;;;6306463;22;20011;-74
2023/01/21 00:24:15;;;;;;;6.15;2.95;;;-0.10;91.80;;;;;;6253461;22;20011;-74
2023/01/21 00:26:41;;;;;;;5.95;2.92;;;-0.10;91.80;;;;;;6278792;22;20007;-74
2023/01/21 00:29:07;;;;;;;5.43;2.55;;;-0.10;91.80;;;;;;6252496;22;20011;-73
2023/01/21 00:31:32;;;;;;;5.18;2.60;;;-0.10;91.80;;;;;;6278914;22;20018;-74
2023/01/21 00:33:58;;;;;;;5.85;2.45;;;-0.10;91.80;;;;;;6306433;22;20078;-74
2023/01/21 00:36:28;;;;;;;4.97;2.28;;;-0.10;91.80;;;;;;6279144;22;20092;-74
2023/01/21 00:38:55;;;;;;;5.28;2.47;;;-0.10;91.80;;;;;;6306676;22;20004;-74
2023/01/21 00:41:20;;;;;;;4.43;2.25;;;-0.10;91.80;;;;;;6278863;22;20010;-73
2023/01/21 00:43:46;;;;;;;6.40;3.08;;;-0.10;91.80;;;;;;6306455;22;20003;-74
2023/01/21 00:46:12;;;;;;;5.47;2.58;;;-0.20;91.80;;;;;;6306735;22;20478;-74
2023/01/21 00:48:37;;;;;;;6.63;2.28;;;-0.20;91.80;;;;;;6306078;22;20034;-74
2023/01/21 00:51:03;;;;;;;6.45;2.80;;;-0.10;91.90;;;;;;6278920;22;20082;-74
2023/01/21 00:53:34;;;;;;;5.18;2.20;;;-0.20;91.80;;;;;;6306176;22;20014;-74
2023/01/21 00:56:02;;;;;;;5.32;2.25;;;-0.20;91.80;;;;;;6279301;22;20007;-74
2023/01/21 00:58:29;;;;;;;5.47;2.63;;;-0.20;91.80;;;;;;6306356;22;20023;-74
2023/01/21 01:01:15;;;;;;;4.38;2.25;;;-0.20;91.80;;;;;;6278627;22;20657;-74
2023/01/21 01:03:42;;;;;;;5.70;2.40;;;-0.20;91.90;;;;;;6304270;22;20042;-74
2023/01/21 01:06:15;;;;;;;4.57;2.30;;;-0.20;91.90;;;;;;6305696;22;20011;-74
2023/01/21 01:08:42;;;;;;;5.22;2.25;;;-0.20;91.90;;;;;;6276396;22;20508;-74
2023/01/21 01:11:08;;;;;;;5.93;2.38;;;-0.20;91.80;;;;;;6306136;22;20011;-74
2023/01/21 01:13:35;;;;;;;4.95;2.25;;;-0.20;91.80;;;;;;6278512;22;20007;-74
2023/01/21 01:16:01;;;;;;;5.97;2.70;;;-0.30;91.80;;;;;;6278385;22;20090;-74
2023/01/21 01:18:29;;;;;;;5.10;2.17;;;-0.30;91.80;;;;;;6278261;22;20335;-74
2023/01/21 01:20:55;;;;;;;5.82;2.60;;;-0.20;91.90;;;;;;6278016;22;20011;-74
2023/01/21 01:23:21;;;;;;;4.68;2.05;;;-0.30;91.90;;;;;;6278037;22;20011;-74
2023/01/21 01:25:55;;;;;;;4.65;2.15;;;-0.30;91.90;;;;;;6253312;22;20018;-75
2023/01/21 01:28:21;;;;;;;4.65;2.33;;;-0.30;91.90;;;;;;6277825;22;20058;-74
2023/01/21 01:30:46;;;;;;;4.03;2.15;;;-0.30;91.90;;;;;;6305411;22;20007;-74
2023/01/21 01:33:12;;;;;;;4.78;2.35;;;-0.30;91.90;;;;;;6278944;22;20094;-74
2023/01/21 01:35:38;;;;;;;5.10;1.92;;;-0.30;92.20;;;;;;6278101;22;20011;-74
2023/01/21 01:38:06;;;;;;;4.93;1.85;;;-0.30;91.90;;;;;;6305823;22;20034;-74
2023/01/21 01:40:33;;;;;;;5.00;2.40;;;-0.30;91.90;;;;;;6277900;22;20019;-74
2023/01/21 01:42:59;;;;;;;4.45;2.00;;;-0.40;91.90;;;;;;6305303;22;20320;-74
2023/01/21 01:45:24;;;;;;;4.75;2.33;;;-0.30;91.90;;;;;;6305433;22;20092;-74
2023/01/21 01:47:58;;;;;;;5.97;2.40;;;-0.40;91.90;;;;;;6305213;22;20007;-74
2023/01/21 01:50:27;;;;;;;5.05;2.20;;;-0.40;91.90;;;;;;6305735;22;20003;-74
2023/01/21 01:52:54;;;;;;;4.75;2.15;;;-0.40;91.90;;;;;;6277899;22;20007;-74
2023/01/21 01:55:20;;;;;;;4.95;2.20;;;-0.40;91.90;;;;;;6305163;22;20065;-74
2023/01/21 01:57:50;;;;;;;4.90;2.25;;;-0.40;91.90;;;;;;6305327;22;20007;-74
2023/01/21 02:00:16;;;;;;;4.53;2.17;;;-0.40;91.90;;;;;;6302810;22;20014;-74
2023/01/21 02:03:42;;;;;;;4.07;2.30;;;-0.40;91.90;;;;;;6277908;22;20011;-73
2023/01/21 02:05:28;;;;;;;5.70;2.63;;;-0.40;91.90;;;;;;6304769;22;20026;-74
2023/01/21 02:07:54;;;;;;;4.88;2.13;;;-0.40;91.90;;;;;;6277961;22;20011;-74
2023/01/21 02:10:20;;;;;;;4.53;1.92;;;-0.50;92.00;;;;;;6305066;22;20015;-73
2023/01/21 02:12:45;;;;;;;5.35;2.30;;;-0.50;92.00;;;;;;6279179;22;20007;-74
2023/01/21 02:15:11;;;;;;;4.93;2.15;;;-0.50;92.00;;;;;;6279505;22;20007;-74
2023/01/21 02:17:53;;;;;;;4.40;1.80;;;-0.50;92.00;;;;;;6279392;22;20015;-74
2023/01/21 02:20:45;;;;;;;4.65;2.00;;;-0.50;91.90;;;;;;6303373;22;20082;-74
2023/01/21 02:23:25;;;;;;;3.90;1.77;;;-0.50;92.00;;;;;;6304734;22;20014;-74
2023/01/21 02:26:13;;;;;;;4.28;1.70;;;-0.50;92.00;;;;;;6276412;22;20073;-74
2023/01/21 02:28:57;;;;;;;5.57;2.05;;;-0.50;92.00;;;;;;6256058;22;20089;-74
2023/01/21 02:31:54;;;;;;;6.28;2.30;;;-0.50;92.00;;;;;;6303752;22;20007;-74
2023/01/21 02:34:42;;;;;;;5.50;2.10;;;-0.60;91.90;;;;;;6278636;22;20081;-73
2023/01/21 02:37:12;;;;;;;5.15;2.20;;;-0.60;91.90;;;;;;6306549;22;20465;-74
2023/01/21 02:40:04;;;;;;;5.53;2.20;;;-0.50;92.00;;;;;;6279828;22;20038;-74
2023/01/21 02:42:54;;;;;;;5.05;2.10;;;-0.50;92.00;;;;;;6304537;22;20011;-74
2023/01/21 02:45:34;;;;;;;4.65;1.90;;;-0.50;91.90;;;;;;6283675;22;20015;-74
2023/01/21 02:48:06;;;;;;;4.43;2.08;;;-0.60;91.90;;;;;;6276895;22;20068;-74
2023/01/21 02:50:43;;;;;;;5.22;1.80;;;-0.60;91.90;;;;;;6277376;22;20015;-74
2023/01/21 02:53:24;;;;;;;3.38;1.42;;;-0.60;91.90;;;;;;6306548;22;20054;-74
2023/01/21 02:55:50;;;;;;;3.83;1.70;;;-0.60;91.90;;;;;;6278291;22;20004;-74
2023/01/21 02:58:19;;;;;;;3.45;1.80;;;-0.60;92.00;;;;;;6253628;22;20458;-74
2023/01/21 03:01:04;;;;;;;3.78;1.70;;;-0.60;92.00;;;;;;6250825;22;20088;-74
2023/01/21 03:03:45;;;;;;;3.05;1.52;;;-0.60;92.00;;;;;;6276891;22;20023;-74
2023/01/21 03:06:33;;;;;;;3.87;1.43;;;-0.60;92.00;;;;;;6305898;22;20011;-74
2023/01/21 03:09:13;;;;;;;4.47;1.60;;;-0.60;92.00;;;;;;6278940;22;20011;-74
2023/01/21 03:11:43;;;;;;;3.45;1.60;;;-0.70;92.00;;;;;;6306257;22;20011;-74
2023/01/21 03:17:19;;;;;;;4.47;1.73;;;-0.70;92.00;;;;;;6283192;22;20019;-74
2023/01/21 03:19:52;;;;;;;2.78;1.40;;;-0.70;92.00;;;;;;6306531;22;20335;-74
2023/01/21 03:22:24;;;;;;;2.15;1.25;;;-0.70;92.10;;;;;;6276554;22;20011;-74
2023/01/21 03:24:52;;;;;;;4.60;1.60;;;-0.70;92.10;;;;;;6304155;22;20089;-74
2023/01/21 03:27:21;;;;;;;2.55;0.98;;;-0.70;92.10;;;;;;6303448;22;20011;-74
2023/01/21 03:29:50;;;;;;;4.88;1.83;;;-0.80;92.10;;;;;;6306593;22;20015;-74
2023/01/21 03:32:20;;;;;;;4.40;1.70;;;-0.80;92.10;;;;;;6228386;22;20017;-74
2023/01/21 03:34:50;;;;;;;3.20;1.52;;;-0.80;92.10;;;;;;6278714;22;20042;-74
2023/01/21 03:37:24;;;;;;;3.28;1.45;;;-0.80;92.10;;;;;;6306842;22;20086;-74
2023/01/21 03:40:05;;;;;;;2.45;1.35;;;-0.80;92.10;;;;;;6303578;22;20021;-74
2023/01/21 03:42:31;;;;;;;4.47;1.67;;;-0.80;92.10;;;;;;6306429;22;20076;-75
2023/01/21 03:44:57;;;;;;;2.95;1.25;;;-0.80;92.40;;;;;;6278652;22;20137;-74
2023/01/21 03:47:31;;;;;;;2.47;1.35;;;-0.80;92.10;;;;;;6278948;22;20061;-74
2023/01/21 03:50:00;;;;;;;3.50;1.50;;;-0.80;92.10;;;;;;6304623;22;20007;-74
2023/01/21 03:52:27;;;;;;;3.35;1.30;;;-0.80;92.10;;;;;;6279994;22;20133;-74
2023/01/21 03:54:53;;;;;;;2.85;1.52;;;-0.90;92.10;;;;;;6306520;22;20007;-74
2023/01/21 03:57:19;;;;;;;3.13;1.25;;;-0.90;92.10;;;;;;6306388;22;20355;-74
2023/01/21 03:59:44;;;;;;;3.53;1.65;;;-0.90;92.10;;;;;;6279462;22;20011;-74
2023/01/21 04:02:10;;;;;;;3.55;1.45;;;-0.90;92.20;;;;;;6306218;22;20320;-74
2023/01/21 04:04:36;;;;;;;3.28;1.30;;;-0.90;92.20;;;;;;6253236;22;20007;-74
2023/01/21 04:07:01;;;;;;;2.83;1.17;;;-0.90;92.20;;;;;;6305818;22;20012;-74
2023/01/21 04:09:27;;;;;;;2.95;1.30;;;-0.90;92.20;;;;;;6306302;22;20090;-74
2023/01/21 04:11:52;;;;;;;4.20;1.40;;;-0.90;92.20;;;;;;6305778;22;20458;-73
2023/01/21 04:14:18;;;;;;;4.32;1.45;;;-0.90;92.20;;;;;;6278677;22;20003;-73
2023/01/21 04:16:44;;;;;;;2.03;1.10;;;-0.90;92.20;;;;;;6278819;22;20072;-74
2023/01/21 04:19:09;;;;;;;3.85;1.55;;;-0.90;92.20;;;;;;6305963;22;20042;-74
2023/01/21 04:21:35;;;;;;;2.67;1.17;;;-0.90;92.20;;;;;;6279225;22;20007;-74
2023/01/21 04:24:01;;;;;;;3.90;1.55;;;-1.00;92.20;;;;;;6305851;22;20006;-74
2023/01/21 04:26:26;;;;;;;4.18;1.35;;;-1.00;92.20;;;;;;6306130;22;20015;-74
2023/01/21 04:28:52;;;;;;;3.15;1.40;;;-1.00;92.20;;;;;;6278887;22;20043;-74
2023/01/21 04:31:18;;;;;;;3.65;1.35;;;-1.00;92.20;;;;;;6306214;22;20023;-74
2023/01/21 04:33:43;;;;;;;3.15;1.45;;;-1.00;92.30;;;;;;6305357;22;20003;-74
2023/01/21 04:36:09;;;;;;;2.63;1.13;;;-1.00;92.30;;;;;;6278489;22;20030;-73
2023/01/21 04:38:34;;;;;;;2.83;1.27;;;-1.00;92.30;;;;;;6305862;22;20034;-74
2023/01/21 04:41:00;;;;;;;2.63;1.10;;;-1.00;92.30;;;;;;6279023;22;20104;-73
2023/01/21 04:43:26;;;;;;;3.88;1.55;;;-1.00;92.30;;;;;;6306549;22;20011;-74
2023/01/21 04:45:51;;;;;;;2.92;1.38;;;-1.00;92.20;;;;;;6306261;22;20018;-74
2023/01/21 04:48:17;;;;;;;4.20;1.83;;;-1.00;92.30;;;;;;6278377;22;20007;-74
2023/01/21 04:50:43;;;;;;;3.20;1.30;;;-1.00;92.30;;;;;;6278500;22;20335;-74
2023/01/21 04:53:08;;;;;;;3.33;1.42;;;-1.00;92.30;;;;;;6279039;22;20010;-74
2023/01/21 04:55:34;;;;;;;3.22;1.40;;;-1.00;92.30;;;;;;6227507;22;20037;-74
2023/01/21 04:57:59;;;;;;;2.97;1.30;;;-1.00;92.20;;;;;;6306193;22;20030;-74
2023/01/21 05:00:25;;;;;;;2.90;1.42;;;-1.00;92.20;;;;;;6305650;22;20011;-74
2023/01/21 05:02:51;;;;;;;3.85;1.40;;;-1.00;92.30;;;;;;6306131;22;20086;-74
2023/01/21 05:05:16;;;;;;;3.70;1.45;;;-1.10;92.30;;;;;;6306588;22;20021;-74
2023/01/21 05:07:42;;;;;;;2.75;1.20;;;-1.10;92.20;;;;;;6306206;22;20007;-74
2023/01/21 05:10:13;;;;;;;3.55;1.30;;;-1.10;92.30;;;;;;6303121;22;20035;-74
2023/01/21 05:12:39;;;;;;;3.95;1.55;;;-1.10;92.30;;;;;;6275576;22;20324;-74
2023/01/21 05:15:05;;;;;;;4.00;1.38;;;-1.10;92.30;;;;;;6305839;22;20022;-74
2023/01/21 05:17:31;;;;;;;3.38;1.65;;;-1.10;92.20;;;;;;6305934;22;20007;-74
2023/01/21 05:19:57;;;;;;;3.65;1.42;;;-1.10;92.20;;;;;;6278714;22;20042;-74
2023/01/21 05:22:22;;;;;;;3.85;1.73;;;-1.10;92.20;;;;;;6305785;22;20419;-74
2023/01/21 05:24:48;;;;;;;3.50;1.50;;;-1.10;92.20;;;;;;6278486;22;20107;-74
2023/01/21 05:27:14;;;;;;;2.95;1.15;;;-1.10;92.20;;;;;;6305855;22;20011;-74
2023/01/21 05:29:40;;;;;;;3.13;1.25;;;-1.10;92.20;;;;;;6252725;22;20015;-74
2023/01/21 05:32:06;;;;;;;3.60;1.60;;;-1.10;92.30;;;;;;6278245;22;20443;-74
2023/01/21 05:34:31;;;;;;;3.85;1.55;;;-1.10;92.30;;;;;;6305543;22;20011;-74
2023/01/21 05:36:57;;;;;;;2.30;1.20;;;-1.20;92.20;;;;;;6278203;22;20014;-74
2023/01/21 05:39:23;;;;;;;3.33;1.50;;;-1.20;92.20;;;;;;6278277;22;20018;-74
2023/01/21 05:41:48;;;;;;;3.58;1.42;;;-1.20;92.30;;;;;;6278150;22;20016;-74
2023/01/21 05:44:14;;;;;;;3.78;1.40;;;-1.20;92.30;;;;;;6252656;22;20066;-74
2023/01/21 05:46:39;;;;;;;3.67;1.60;;;-1.20;92.30;;;;;;6306142;22;20011;-74
2023/01/21 05:49:05;;;;;;;4.13;1.60;;;-1.20;92.30;;;;;;6307153;22;20343;-74
2023/01/21 05:51:31;;;;;;;4.57;1.73;;;-1.10;92.30;;;;;;6307066;22;20029;-74
2023/01/21 05:53:56;;;;;;;2.47;1.10;;;-1.20;92.30;;;;;;6307129;22;20004;-74
2023/01/21 05:56:22;;;;;;;3.13;1.35;;;-1.20;92.30;;;;;;6279872;22;20030;-74
2023/01/21 05:58:48;;;;;;;3.35;1.58;;;-1.30;92.30;;;;;;6279705;22;20011;-74
2023/01/21 06:01:13;;;;;;;4.40;1.60;;;-1.20;92.30;;;;;;6307119;22;20015;-74
2023/01/21 06:03:39;;;;;;;4.63;1.67;;;-1.30;92.30;;;;;;6307461;22;20019;-74
2023/01/21 06:06:06;;;;;;;3.13;1.33;;;-1.20;92.40;;;;;;6306781;22;20454;-74
2023/01/21 06:08:31;;;;;;;4.07;1.50;;;-1.10;92.70;;;;;;6307179;22;20019;-74
2023/01/21 06:10:57;;;;;;;3.67;1.23;;;-1.20;92.40;;;;;;6306910;22;20061;-74
2023/01/21 06:13:23;;;;;;;4.20;1.75;;;-1.20;92.40;;;;;;6279665;22;20033;-74
2023/01/21 06:15:49;;;;;;;4.80;1.75;;;-1.10;92.40;;;;;;6307328;22;20003;-74
2023/01/21 06:18:15;;;;;;;4.55;2.05;;;-1.10;92.30;;;;;;6279397;22;20343;-74
2023/01/21 06:20:40;;;;;;;3.90;1.50;;;-1.10;92.20;;;;;;6279599;22;20007;-74
2023/01/21 06:23:06;;;;;;;4.78;2.05;;;-1.00;92.20;;;;;;6307062;22;20435;-74
2023/01/21 06:25:32;;;;;;;3.83;1.50;;;-1.00;92.20;;;;;;6307131;22;20037;-74
2023/01/21 06:27:58;;;;;;;5.20;1.70;;;-0.90;92.20;;;;;;6280462;22;20010;-74
2023/01/21 06:30:24;;;;;;;5.97;2.35;;;-0.90;92.20;;;;;;6279489;22;20007;-74
2023/01/21 06:32:51;;;;;;;6.70;2.38;;;-0.90;92.10;;;;;;6306816;22;20015;-74
2023/01/21 06:35:17;;;;;;;4.57;2.20;;;-0.90;92.10;;;;;;6307469;22;20003;-74
2023/01/21 06:37:44;;;;;;;5.97;2.38;;;-0.90;92.40;;;;;;6306876;22;20018;-74
2023/01/21 06:40:10;;;;;;;3.58;1.65;;;-0.80;92.10;;;;;;6280269;22;20007;-74
2023/01/21 06:42:36;;;;;;;5.22;2.33;;;-0.80;92.10;;;;;;6279371;22;20057;-74
2023/01/21 06:45:02;;;;;;;4.47;2.13;;;-0.70;92.10;;;;;;6279679;22;20343;-74
2023/01/21 06:47:28;;;;;;;4.88;1.83;;;-0.70;92.00;;;;;;6276554;22;20007;-74
2023/01/21 06:49:54;;;;;;;5.28;1.85;;;-0.70;92.00;;;;;;6279332;22;20018;-74
2023/01/21 06:52:19;;;;;;;4.75;1.73;;;-0.70;92.00;;;;;;6279411;22;20011;-74
2023/01/21 06:54:45;;;;;;;3.97;1.80;;;-0.70;92.00;;;;;;6307378;22;20011;-74
2023/01/21 06:57:11;;;;;;;5.38;2.13;;;-0.60;92.00;;;;;;6279127;22;20011;-74
2023/01/21 06:59:36;;;;;;;3.92;1.83;;;-0.60;92.00;;;;;;6306719;22;20031;-74
2023/01/21 07:02:02;;;;;;;5.53;1.88;;;-0.70;92.00;;;;;;6306632;22;20007;-74
2023/01/21 07:04:29;;;;;;;5.25;2.10;;;-0.70;92.00;;;;;;6279356;22;20003;-74
2023/01/21 07:06:55;;;;;;;5.95;2.00;;;-0.70;92.00;;;;;;6279087;22;19999;-74
2023/01/21 07:09:21;;;;;;;5.35;1.83;;;-0.60;92.10;;;;;;6307404;22;20010;-74
2023/01/21 07:11:47;;;;;;;4.43;2.15;;;-0.60;92.10;;;;;;6280051;22;20011;-74
2023/01/21 07:14:12;;;;;;;5.63;2.42;;;-0.70;92.00;;;;;;6279690;22;20446;-74
2023/01/21 07:16:38;;;;;;;5.20;2.10;;;-0.60;92.10;;;;;;6279256;22;20007;-74
2023/01/21 07:19:04;;;;;;;5.05;2.10;;;-0.60;92.10;;;;;;6279181;22;20014;-74
2023/01/21 07:21:29;;;;;;;4.20;1.88;;;-0.60;92.10;;;;;;6306564;22;20012;-74
2023/01/21 07:23:55;;;;;;;4.50;1.90;;;-0.60;92.10;;;;;;6306691;22;20180;-74
2023/01/21 07:26:21;;;;;;;3.30;1.45;;;-0.60;92.10;;;;;;6307081;22;20033;-73
2023/01/21 07:28:47;;;;;;;5.80;2.60;;;-0.60;92.10;;;;;;6306659;22;20015;-74
2023/01/21 07:31:13;;;;;;;5.78;2.13;;;-0.60;92.10;;;;;;6306489;22;20064;-73
2023/01/21 07:33:39;;;;;;;6.80;2.38;;;-0.60;92.10;;;;;;6280033;22;20500;-74
2023/01/21 07:36:05;;;;;;;3.88;1.55;;;-0.60;92.10;;;;;;6307095;22;20014;-74
2023/01/21 07:38:31;;;;;;;8.73;2.90;;;-0.60;92.10;;;;;;6280005;22;20331;-74
2023/01/21 07:40:56;;;;;;;5.65;2.17;;;-0.60;92.10;;;;;;6306461;22;20018;-74
2023/01/21 07:43:22;;;;;;;5.53;2.40;;;-0.50;92.20;;;;;;6306405;22;20086;-74
2023/01/21 07:45:48;;;;;;;6.10;2.20;;;-0.50;92.20;;;;;;6279660;22;20034;-74
2023/01/21 07:48:13;;;;;;;4.68;2.13;;;-0.50;92.10;;;;;;6306642;22;20101;-74
2023/01/21 07:50:39;;;;;;;4.20;1.88;;;-0.50;92.10;;;;;;6307022;22;20003;-74
2023/01/21 07:53:05;;;;;;;5.75;2.03;;;-0.50;92.10;;;;;;6279612;22;20011;-73
2023/01/21 07:55:31;;;;;;;4.97;2.05;;;-0.50;92.10;;;;;;6253730;22;20014;-74
2023/01/21 07:57:57;;;;;;;5.25;2.13;;;-0.50;92.10;;;;;;6306510;22;20007;-74
2023/01/21 08:00:25;;;;;;;4.45;2.00;;;-0.50;92.10;;;;;;6306351;22;20015;-74
2023/01/21 08:02:53;;;;;;;4.40;1.92;;;-0.40;92.20;;;;;;6306889;22;20011;-74
2023/01/21 08:05:20;;;;;;;4.97;1.80;;;-0.40;92.20;;;;;;6306670;22;20022;-74
2023/01/21 08:07:45;;;;;;;4.07;1.92;;;-0.40;92.20;;;;;;6306271;22;20424;-74
2023/01/21 08:10:11;;;;;;;4.70;1.90;;;-0.40;92.10;;;;;;6279067;22;20033;-74
2023/01/21 08:12:36;;;;;;;5.28;1.90;;;-0.30;92.20;;;;;;6253296;22;20007;-74
2023/01/21 08:15:02;;;;;;;4.20;1.70;;;-0.40;92.20;;;;;;6306526;22;20007;-74
2023/01/21 08:17:28;;;;;;;5.85;1.80;;;-0.30;92.20;;;;;;6278843;22;20011;-74
2023/01/21 08:19:54;;;;;;;3.78;1.77;;;-0.30;92.10;;;;;;6278699;22;20011;-74
2023/01/21 08:22:19;;;;;;;4.20;1.65;;;-0.20;92.20;;;;;;6306469;22;20007;-75
2023/01/21 08:24:45;;;;;;;4.03;1.65;;;-0.20;92.10;;;;;;6278973;22;20045;-75
2023/01/21 08:27:11;;;;;;;3.97;1.73;;;-0.20;92.10;;;;;;6306355;22;20014;-74
2023/01/21 08:29:36;;;;;;;3.10;1.65;;;-0.20;92.10;;;;;;6253772;22;20053;-74
2023/01/21 08:32:02;;;;;;;4.25;1.48;;;-0.10;92.20;;;;;;6306568;22;20317;-74
2023/01/21 08:34:27;;;;;;;4.00;1.55;;;-0.10;92.10;;;;;;6279259;22;20007;-74
2023/01/21 08:36:53;;;;;;;4.45;1.65;;;0.00;92.20;;;;;;6279132;22;20485;-74
2023/01/21 08:39:19;;;;;;;3.60;1.50;;;0.00;92.10;;;;;;6306702;22;20437;-74
2023/01/21 08:41:44;;;;;;;2.38;1.42;;;0.00;92.10;;;;;;6253377;22;20100;-74
2023/01/21 08:44:10;;;;;;;4.38;1.90;;;0.00;92.10;;;;;;6306343;22;20007;-74
2023/01/21 08:46:36;;;;;;;3.78;1.67;;;0.10;92.10;;;;;;6306194;22;20007;-74
2023/01/21 08:49:02;;;;;;;3.55;1.48;;;0.10;92.10;;;;;;6306230;22;20390;-74
2023/01/21 08:51:27;;;;;;;3.10;1.30;;;0.20;92.10;;;;;;6251473;22;20012;-74
2023/01/21 08:53:53;;;;;;;3.53;1.45;;;0.20;92.10;;;;;;6306102;22;20014;-74
2023/01/21 08:56:19;;;;;;;3.90;1.75;;;0.20;92.10;;;;;;6278772;22;20331;-74
2023/01/21 08:58:44;;;;;;;3.40;1.42;;;0.30;92.10;;;;;;6253110;22;20331;-74
2023/01/21 09:01:14;;;;;;;3.40;1.73;;;0.30;92.10;;;;;;6306779;22;20086;-74
2023/01/21 09:03:39;;;;;;;3.47;1.23;;;0.40;92.10;;;;;;6306711;22;20007;-75
2023/01/21 09:06:06;;;;;;;3.30;1.48;;;0.50;92.10;;;;;;6278789;22;20102;-75
2023/01/21 09:08:48;;;;;;;3.53;1.42;;;0.50;92.00;;;;;;6278356;22;20463;-74
2023/01/21 09:11:15;;;;;;;3.45;1.20;;;0.50;92.30;;;;;;6256571;22;20312;-74
2023/01/21 09:13:43;;;;;;;3.05;1.13;;;0.60;92.00;;;;;;6278822;22;20014;-73
2023/01/21 09:16:15;;;;;;;3.13;1.50;;;0.60;92.00;;;;;;6278634;22;20014;-73
2023/01/21 09:18:41;;;;;;;3.33;1.30;;;0.60;92.00;;;;;;6279702;22;20004;-74
2023/01/21 09:21:08;;;;;;;2.67;1.33;;;0.60;92.00;;;;;;6254163;22;20007;-73
2023/01/21 09:23:35;;;;;;;2.80;1.20;;;0.60;92.00;;;;;;6280824;22;20335;-74
2023/01/21 09:26:04;;;;;;;3.08;1.20;;;0.70;92.00;;;;;;6280081;22;20008;-74
2023/01/21 09:28:35;;;;;;;4.38;1.70;;;0.80;92.00;;;;;;6279963;22;20019;-73
2023/01/21 09:31:04;;;;;;;3.33;1.20;;;0.80;92.00;;;;;;6307342;22;20027;-73
2023/01/21 09:33:32;;;;;;;3.30;1.52;;;0.80;91.90;;;;;;6307275;22;20043;-73
2023/01/21 09:36:00;;;;;;;3.28;1.52;;;0.90;91.90;;;;;;6279895;22;20011;-73
2023/01/21 09:38:26;;;;;;;2.92;1.23;;;0.90;91.90;;;;;;6252594;22;20038;-74
2023/01/21 09:40:52;;;;;;;4.47;2.10;;;0.90;91.90;;;;;;6279992;22;20335;-73
2023/01/21 09:43:34;;;;;;;5.40;1.98;;;0.90;91.80;;;;;;6254316;22;20021;-73
2023/01/21 09:46:02;;;;;;;;;;;1.00;92.10;;;;;;6306372;22;20011;-74
2023/01/21 09:48:32;;;;;;;3.03;1.45;;;1.00;91.90;;;;;;6254116;22;19917;-72
2023/01/21 09:51:04;;;;;;;3.88;1.42;;;1.00;91.80;;;;;;6307633;22;20007;-74
2023/01/21 09:53:47;;;;;;;3.42;1.55;;;1.10;91.80;;;;;;6279965;22;20011;-71
2023/01/21 09:56:29;;;;;;;3.60;1.80;;;1.10;91.80;;;;;;6305268;22;20003;-71
2023/01/21 09:59:06;;;;;;;3.83;1.70;;;1.10;91.80;;;;;;6276867;22;20415;-73
2023/01/21 10:01:35;;;;;;;4.22;1.60;;;1.20;91.80;;;;;;6305228;22;20129;-74
2023/01/21 10:04:25;;;;;;;4.22;1.63;;;1.20;91.80;;;;;;6279630;22;20022;-74
2023/01/21 10:06:58;;;;;;;2.83;1.30;;;1.30;91.80;;;;;;6306293;22;20007;-75
2023/01/21 10:09:38;;;;;;;3.60;1.50;;;1.40;91.80;;;;;;6307517;22;20007;-74
2023/01/21 10:12:19;;;;;;;3.72;1.63;;;1.40;91.70;;;;;;6278007;22;20090;-74
2023/01/21 10:15:11;;;;;;;4.43;1.95;;;1.40;91.70;;;;;;6304334;22;20007;-75
2023/01/21 10:18:01;;;;;;;3.10;1.52;;;1.50;91.70;;;;;;6254170;22;20098;-75
2023/01/21 10:20:34;;;;;;;4.10;1.52;;;1.50;91.70;;;;;;6306976;22;20061;-72
2023/01/21 10:23:06;;;;;;;4.45;1.63;;;1.50;91.60;;;;;;6254434;22;20011;-74
2023/01/21 10:25:34;;;;;;;2.95;1.48;;;1.60;91.70;;;;;;6304318;22;20010;-74
2023/01/21 10:28:16;;;;;;;4.85;2.15;;;1.60;91.70;;;;;;6279235;22;20020;-72
2023/01/21 10:30:44;;;;;;;4.97;1.85;;;1.60;91.60;;;;;;6281946;22;20087;-75
2023/01/21 10:33:17;;;;;;;4.97;1.83;;;1.70;91.60;;;;;;6279008;22;20007;-73
2023/01/21 10:36:09;;;;;;;4.30;1.83;;;1.70;91.60;;;;;;6279715;22;20015;-75
2023/01/21 10:38:56;;;;;;;4.30;1.63;;;1.70;91.60;;;;;;6277066;22;20098;-74
2023/01/21 10:41:35;;;;;;;4.60;1.85;;;1.70;91.60;;;;;;6277409;22;20025;-75
2023/01/21 10:44:27;;;;;;;3.58;1.70;;;1.80;91.60;;;;;;6306166;22;20500;-74
2023/01/21 10:46:59;;;;;;;;;;;1.90;91.60;;;;;;6304598;22;20018;-74
2023/01/21 10:49:43;;;;;;;3.83;1.73;;;1.80;91.50;;;;;;6253802;22;19918;-74
2023/01/21 10:52:47;;;;;;;3.45;1.65;;;1.90;91.50;;;;;;6304487;22;20018;-75
2023/01/21 10:55:37;;;;;;;3.92;1.77;;;2.00;91.50;;;;;;6279306;22;20439;-75
2023/01/21 10:58:13;;;;;;;4.32;1.80;;;2.10;91.50;;;;;;6278496;22;20342;-75
2023/01/21 11:00:46;;;;;;;3.53;1.67;;;2.10;91.40;;;;;;6276420;22;20011;-73
2023/01/21 11:03:25;;;;;;;4.70;1.83;;;2.20;91.30;;;;;;6251930;22;20004;-74
2023/01/21 11:05:50;;;;;;;5.47;2.28;;;2.20;91.30;;;;;;6306129;22;20011;-74
2023/01/21 11:08:20;;;;;;;5.78;2.35;;;2.10;91.30;;;;;;6279116;22;20022;-73
2023/01/21 11:10:49;;;;;;;4.07;1.90;;;2.20;91.40;;;;;;6252355;22;20094;-76
2023/01/21 11:13:15;;;;;;;4.55;1.92;;;2.10;91.30;;;;;;6306775;22;20007;-75
2023/01/21 11:15:46;;;;;;;4.88;2.00;;;2.20;91.40;;;;;;6307338;22;20436;-75
2023/01/21 11:18:32;;;;;;;3.90;1.58;;;2.20;91.40;;;;;;6303920;22;20011;-76
2023/01/21 11:21:02;;;;;;;3.25;1.70;;;2.20;91.40;;;;;;6276770;22;20011;-75
2023/01/21 11:23:31;;;;;;;3.72;1.55;;;2.30;91.40;;;;;;6276489;22;20065;-76
2023/01/21 11:26:03;;;;;;;4.60;2.00;;;2.30;91.30;;;;;;6280130;22;20082;-75
2023/01/21 11:28:29;;;;;;;4.55;1.92;;;2.30;91.30;;;;;;6303586;22;20086;-75
2023/01/21 11:31:14;;;;;;;3.85;1.50;;;2.20;91.30;;;;;;6279306;22;20035;-75
2023/01/21 11:33:42;;;;;;;3.90;1.75;;;2.30;91.40;;;;;;6279701;22;20022;-76
2023/01/21 11:36:16;;;;;;;4.45;2.03;;;2.30;91.40;;;;;;6279278;22;20014;-76
2023/01/21 11:38:45;;;;;;;3.85;1.80;;;2.30;91.40;;;;;;6227880;22;20018;-75
2023/01/21 11:41:18;;;;;;;3.90;1.90;;;2.20;91.40;;;;;;6254255;22;20019;-75
2023/01/21 11:43:48;;;;;;;4.03;1.67;;;2.30;91.50;;;;;;6253674;22;20065;-75
2023/01/21 11:46:27;;;;;;;3.58;1.80;;;2.30;91.50;;;;;;6279131;22;20046;-75
2023/01/21 11:48:54;;;;;;;4.15;1.85;;;2.30;91.40;;;;;;6254850;22;20011;-75
2023/01/21 11:51:20;;;;;;;4.03;2.00;;;2.40;91.40;;;;;;6307008;22;20082;-75
2023/01/21 11:53:46;;;;;;;4.45;2.30;;;2.40;91.40;;;;;;6279414;22;20046;-75
2023/01/21 11:56:14;;;;;;;4.32;1.70;;;2.50;91.30;;;;;;6306597;22;20137;-75
2023/01/21 11:58:41;;;;;;;4.63;1.85;;;2.40;91.30;;;;;;6306465;22;20435;-76
2023/01/21 12:01:17;;;;;;;4.97;2.13;;;2.40;91.30;;;;;;6279089;22;20023;-76
2023/01/21 12:03:51;;;;;;;4.63;2.05;;;2.40;91.30;;;;;;6251959;22;20011;-76
2023/01/21 12:06:24;;;;;;;4.03;2.00;;;2.60;91.40;;;;;;6306458;22;20023;-75
2023/01/21 12:08:54;;;;;;;4.10;1.92;;;2.60;91.30;;;;;;6306810;22;20436;-75
2023/01/21 12:11:23;;;;;;;3.38;1.70;;;2.70;91.30;;;;;;6279100;22;20012;-75
2023/01/21 12:14:06;;;;;;;4.93;1.70;;;2.80;91.20;;;;;;6306918;22;20010;-75
2023/01/21 12:16:58;;;;;;;3.08;1.60;;;2.80;91.20;;;;;;6253837;22;20014;-75
2023/01/21 12:19:47;;;;;;;4.15;1.80;;;3.00;91.10;;;;;;6306323;22;20015;-77
2023/01/21 12:22:34;;;;;;;5.20;2.00;;;2.90;91.00;;;;;;6276351;22;20022;-76
2023/01/21 12:25:40;;;;;;;3.58;1.67;;;3.10;91.00;;;;;;6304439;22;20021;-75
2023/01/21 12:28:28;;;;;;;3.10;1.48;;;3.10;91.00;;;;;;6305367;22;20015;-76
2023/01/21 12:31:08;;;;;;;3.38;1.67;;;3.10;90.90;;;;;;6306772;22;20007;-76
2023/01/21 12:33:45;;;;;;;2.50;1.33;;;3.20;90.90;;;;;;6255655;22;20045;-76
2023/01/21 12:36:18;;;;;;;3.22;1.50;;;3.20;90.80;;;;;;6279216;22;20339;-77
2023/01/21 12:38:49;;;;;;;3.30;1.50;;;3.20;90.80;;;;;;6304009;22;20097;-74
2023/01/21 12:41:23;;;;;;;4.30;1.83;;;3.20;90.80;;;;;;6253989;22;20083;-77
2023/01/21 12:43:57;;;;;;;2.70;1.33;;;3.20;90.80;;;;;;6276871;22;20007;-77
2023/01/21 12:46:31;;;;;;;4.22;1.70;;;3.30;90.80;;;;;;6228887;22;20019;-77
2023/01/21 12:49:14;;;;;;;3.72;1.40;;;3.30;90.90;;;;;;6229608;22;20035;-75
2023/01/21 12:51:43;;;;;;;3.70;1.50;;;3.30;90.80;;;;;;6278288;22;20003;-75
2023/01/21 12:54:26;;;;;;;3.42;1.80;;;3.30;90.80;;;;;;6305752;22;20004;-76
2023/01/21 12:56:58;;;;;;;3.67;1.38;;;3.40;90.80;;;;;;6255997;22;20011;-77
2023/01/21 12:59:32;;;;;;;4.70;1.50;;;3.40;90.80;;;;;;6279380;22;20007;-77
2023/01/21 13:02:15;;;;;;;3.35;1.60;;;3.50;90.80;;;;;;6253153;22;20049;-76
2023/01/21 13:05:08;;;;;;;3.22;1.55;;;3.60;90.70;;;;;;6277154;22;20007;-75
2023/01/21 13:07:59;;;;;;;3.80;1.88;;;3.70;90.70;;;;;;6278691;22;20442;-75
2023/01/21 13:10:34;;;;;;;2.83;1.30;;;3.70;90.60;;;;;;6278726;22;20359;-75